sensor_id;sensor_type;location;lat;lon;timestamp;P1;durP1;ratioP1;P2;durP2;ratioP2
18378;SDS011;27025;51.986;5.984;2022-12-10T00:00:36;74.77;;;40.57;;
18378;SDS011;27025;51.986;5.984;2022-12-10T00:03:02;67.20;;;38.27;;
18378;SDS011;27025;51.986;5.984;2022-12-10T00:05:28;72.53;;;39.27;;
18378;SDS011;27025;51.986;5.984;2022-12-10T00:07:54;71.40;;;38.33;;
18378;SDS011;27025;51.986;5.984;2022-12-10T00:10:20;70.23;;;38.53;;
18378;SDS011;27025;51.986;5.984;2022-12-10T00:12:46;71.00;;;38.40;;
18378;SDS011;27025;51.986;5.984;2022-12-10T00:15:12;72.17;;;39.57;;
18378;SDS011;27025;51.986;5.984;2022-12-10T00:17:38;77.57;;;41.00;;
18378;SDS011;27025;51.986;5.984;2022-12-10T00:20:04;72.47;;;40.30;;
18378;SDS011;27025;51.986;5.984;2022-12-10T00:22:31;75.60;;;41.13;;
18378;SDS011;27025;51.986;5.984;2022-12-10T00:24:57;71.63;;;40.33;;
18378;SDS011;27025;51.986;5.984;2022-12-10T00:27:23;70.63;;;39.90;;
18378;SDS011;27025;51.986;5.984;2022-12-10T00:29:49;76.63;;;41.13;;
18378;SDS011;27025;51.986;5.984;2022-12-10T00:32:15;77.97;;;40.73;;
18378;SDS011;27025;51.986;5.984;2022-12-10T00:34:41;74.00;;;39.97;;
18378;SDS011;27025;51.986;5.984;2022-12-10T00:37:07;70.20;;;38.47;;
18378;SDS011;27025;51.986;5.984;2022-12-10T00:39:33;72.53;;;38.00;;
18378;SDS011;27025;51.986;5.984;2022-12-10T00:41:59;82.45;;;48.38;;
18378;SDS011;27025;51.986;5.984;2022-12-10T00:44:25;87.72;;;52.47;;
18378;SDS011;27025;51.986;5.984;2022-12-10T00:46:51;75.97;;;40.47;;
18378;SDS011;27025;51.986;5.984;2022-12-10T00:49:17;76.90;;;39.37;;
18378;SDS011;27025;51.986;5.984;2022-12-10T00:51:43;69.87;;;37.23;;
18378;SDS011;27025;51.986;5.984;2022-12-10T00:54:09;72.50;;;37.23;;
18378;SDS011;27025;51.986;5.984;2022-12-10T00:56:36;66.73;;;36.83;;
18378;SDS011;27025;51.986;5.984;2022-12-10T00:59:02;75.83;;;37.70;;
18378;SDS011;27025;51.986;5.984;2022-12-10T01:01:29;75.47;;;39.03;;
18378;SDS011;27025;51.986;5.984;2022-12-10T01:04:01;77.23;;;38.77;;
18378;SDS011;27025;51.986;5.984;2022-12-10T01:06:28;73.13;;;37.63;;
18378;SDS011;27025;51.986;5.984;2022-12-10T01:08:56;84.88;;;50.10;;
18378;SDS011;27025;51.986;5.984;2022-12-10T01:11:24;90.03;;;53.08;;
18378;SDS011;27025;51.986;5.984;2022-12-10T01:13:50;74.17;;;39.50;;
18378;SDS011;27025;51.986;5.984;2022-12-10T01:16:18;71.60;;;38.37;;
18378;SDS011;27025;51.986;5.984;2022-12-10T01:18:44;70.53;;;38.53;;
18378;SDS011;27025;51.986;5.984;2022-12-10T01:21:11;72.50;;;38.77;;
18378;SDS011;27025;51.986;5.984;2022-12-10T01:23:38;73.80;;;37.47;;
18378;SDS011;27025;51.986;5.984;2022-12-10T01:26:08;70.83;;;37.43;;
18378;SDS011;27025;51.986;5.984;2022-12-10T01:28:35;66.77;;;36.17;;
18378;SDS011;27025;51.986;5.984;2022-12-10T01:31:03;69.87;;;36.50;;
18378;SDS011;27025;51.986;5.984;2022-12-10T01:33:29;66.97;;;37.27;;
18378;SDS011;27025;51.986;5.984;2022-12-10T01:35:56;70.27;;;37.27;;
18378;SDS011;27025;51.986;5.984;2022-12-10T01:38:22;70.03;;;38.73;;
18378;SDS011;27025;51.986;5.984;2022-12-10T01:40:48;67.30;;;36.90;;
18378;SDS011;27025;51.986;5.984;2022-12-10T01:43:15;70.93;;;36.17;;
18378;SDS011;27025;51.986;5.984;2022-12-10T01:45:41;75.37;;;36.80;;
18378;SDS011;27025;51.986;5.984;2022-12-10T01:48:07;68.97;;;36.70;;
18378;SDS011;27025;51.986;5.984;2022-12-10T01:50:33;68.87;;;36.53;;
18378;SDS011;27025;51.986;5.984;2022-12-10T01:52:59;71.10;;;37.77;;
18378;SDS011;27025;51.986;5.984;2022-12-10T01:55:59;70.13;;;36.93;;
18378;SDS011;27025;51.986;5.984;2022-12-10T01:58:18;73.27;;;37.47;;
18378;SDS011;27025;51.986;5.984;2022-12-10T02:00:54;72.10;;;37.43;;
18378;SDS011;27025;51.986;5.984;2022-12-10T02:03:25;65.97;;;35.70;;
18378;SDS011;27025;51.986;5.984;2022-12-10T02:05:58;66.97;;;36.20;;
18378;SDS011;27025;51.986;5.984;2022-12-10T02:08:51;66.90;;;36.53;;
18378;SDS011;27025;51.986;5.984;2022-12-10T02:13:40;68.27;;;36.07;;
18378;SDS011;27025;51.986;5.984;2022-12-10T02:18:37;71.20;;;36.70;;
18378;SDS011;27025;51.986;5.984;2022-12-10T02:21:10;70.70;;;35.43;;
18378;SDS011;27025;51.986;5.984;2022-12-10T02:23:39;68.87;;;35.03;;
18378;SDS011;27025;51.986;5.984;2022-12-10T02:26:11;72.37;;;37.70;;
18378;SDS011;27025;51.986;5.984;2022-12-10T02:28:47;68.57;;;38.23;;
18378;SDS011;27025;51.986;5.984;2022-12-10T02:31:15;67.13;;;36.03;;
18378;SDS011;27025;51.986;5.984;2022-12-10T02:33:43;66.27;;;36.10;;
18378;SDS011;27025;51.986;5.984;2022-12-10T02:36:11;70.47;;;37.47;;
18378;SDS011;27025;51.986;5.984;2022-12-10T02:38:39;64.43;;;36.13;;
18378;SDS011;27025;51.986;5.984;2022-12-10T02:41:07;66.27;;;36.27;;
18378;SDS011;27025;51.986;5.984;2022-12-10T02:43:33;68.87;;;36.90;;
18378;SDS011;27025;51.986;5.984;2022-12-10T02:46:01;67.83;;;37.33;;
18378;SDS011;27025;51.986;5.984;2022-12-10T02:48:28;66.57;;;37.07;;
18378;SDS011;27025;51.986;5.984;2022-12-10T02:50:54;68.23;;;35.40;;
18378;SDS011;27025;51.986;5.984;2022-12-10T02:53:20;67.30;;;37.07;;
18378;SDS011;27025;51.986;5.984;2022-12-10T03:00:55;67.03;;;37.67;;
18378;SDS011;27025;51.986;5.984;2022-12-10T03:03:29;70.70;;;37.10;;
18378;SDS011;27025;51.986;5.984;2022-12-10T03:06:16;68.13;;;35.80;;
18378;SDS011;27025;51.986;5.984;2022-12-10T03:11:13;62.60;;;35.13;;
18378;SDS011;27025;51.986;5.984;2022-12-10T03:13:48;66.37;;;36.13;;
18378;SDS011;27025;51.986;5.984;2022-12-10T03:16:15;66.87;;;35.03;;
18378;SDS011;27025;51.986;5.984;2022-12-10T03:18:42;64.63;;;35.23;;
18378;SDS011;27025;51.986;5.984;2022-12-10T03:21:09;70.20;;;37.03;;
18378;SDS011;27025;51.986;5.984;2022-12-10T03:23:36;68.20;;;36.27;;
18378;SDS011;27025;51.986;5.984;2022-12-10T03:26:04;66.37;;;37.00;;
18378;SDS011;27025;51.986;5.984;2022-12-10T03:28:35;64.70;;;35.77;;
18378;SDS011;27025;51.986;5.984;2022-12-10T03:31:03;66.87;;;36.53;;
18378;SDS011;27025;51.986;5.984;2022-12-10T03:33:30;72.63;;;38.33;;
18378;SDS011;27025;51.986;5.984;2022-12-10T03:35:56;65.70;;;37.37;;
18378;SDS011;27025;51.986;5.984;2022-12-10T03:38:22;76.73;;;38.67;;
18378;SDS011;27025;51.986;5.984;2022-12-10T03:40:48;74.27;;;38.63;;
18378;SDS011;27025;51.986;5.984;2022-12-10T03:43:14;86.88;;;45.20;;
18378;SDS011;27025;51.986;5.984;2022-12-10T03:45:41;78.73;;;41.77;;
18378;SDS011;27025;51.986;5.984;2022-12-10T03:48:07;79.13;;;40.70;;
18378;SDS011;27025;51.986;5.984;2022-12-10T03:50:33;77.57;;;40.40;;
18378;SDS011;27025;51.986;5.984;2022-12-10T03:52:59;82.73;;;38.87;;
18378;SDS011;27025;51.986;5.984;2022-12-10T03:55:25;82.07;;;41.00;;
18378;SDS011;27025;51.986;5.984;2022-12-10T03:57:51;69.00;;;36.90;;
18378;SDS011;27025;51.986;5.984;2022-12-10T04:00:17;76.67;;;39.17;;
18378;SDS011;27025;51.986;5.984;2022-12-10T04:02:43;77.83;;;39.33;;
18378;SDS011;27025;51.986;5.984;2022-12-10T04:05:09;77.67;;;40.23;;
18378;SDS011;27025;51.986;5.984;2022-12-10T04:07:35;76.40;;;39.00;;
18378;SDS011;27025;51.986;5.984;2022-12-10T04:10:01;83.23;;;40.30;;
18378;SDS011;27025;51.986;5.984;2022-12-10T04:12:27;82.20;;;40.90;;
18378;SDS011;27025;51.986;5.984;2022-12-10T04:14:53;82.27;;;41.33;;
18378;SDS011;27025;51.986;5.984;2022-12-10T04:17:38;80.37;;;41.17;;
18378;SDS011;27025;51.986;5.984;2022-12-10T04:20:04;87.10;;;40.77;;
18378;SDS011;27025;51.986;5.984;2022-12-10T04:22:30;78.23;;;40.23;;
18378;SDS011;27025;51.986;5.984;2022-12-10T04:25:15;77.43;;;40.60;;
18378;SDS011;27025;51.986;5.984;2022-12-10T04:27:59;80.33;;;39.70;;
18378;SDS011;27025;51.986;5.984;2022-12-10T04:30:25;85.97;;;43.10;;
18378;SDS011;27025;51.986;5.984;2022-12-10T04:32:51;83.87;;;40.50;;
18378;SDS011;27025;51.986;5.984;2022-12-10T04:35:17;84.67;;;41.73;;
18378;SDS011;27025;51.986;5.984;2022-12-10T04:37:43;85.17;;;41.23;;
18378;SDS011;27025;51.986;5.984;2022-12-10T04:40:09;85.27;;;42.40;;
18378;SDS011;27025;51.986;5.984;2022-12-10T04:42:35;80.90;;;41.67;;
18378;SDS011;27025;51.986;5.984;2022-12-10T04:45:01;88.07;;;42.77;;
18378;SDS011;27025;51.986;5.984;2022-12-10T04:47:27;95.47;;;44.37;;
18378;SDS011;27025;51.986;5.984;2022-12-10T04:49:54;92.47;;;43.97;;
18378;SDS011;27025;51.986;5.984;2022-12-10T04:52:20;96.03;;;44.70;;
18378;SDS011;27025;51.986;5.984;2022-12-10T04:54:46;103.97;;;46.20;;
18378;SDS011;27025;51.986;5.984;2022-12-10T04:57:12;102.97;;;47.93;;
18378;SDS011;27025;51.986;5.984;2022-12-10T04:59:39;102.23;;;46.53;;
18378;SDS011;27025;51.986;5.984;2022-12-10T05:02:05;100.73;;;47.60;;
18378;SDS011;27025;51.986;5.984;2022-12-10T05:04:31;102.37;;;47.13;;
18378;SDS011;27025;51.986;5.984;2022-12-10T05:06:57;107.33;;;49.87;;
18378;SDS011;27025;51.986;5.984;2022-12-10T05:09:23;114.70;;;49.43;;
18378;SDS011;27025;51.986;5.984;2022-12-10T05:11:49;110.10;;;48.70;;
18378;SDS011;27025;51.986;5.984;2022-12-10T05:14:15;120.93;;;50.57;;
18378;SDS011;27025;51.986;5.984;2022-12-10T05:16:41;126.53;;;49.80;;
18378;SDS011;27025;51.986;5.984;2022-12-10T05:19:08;122.63;;;50.63;;
18378;SDS011;27025;51.986;5.984;2022-12-10T05:21:34;125.70;;;51.07;;
18378;SDS011;27025;51.986;5.984;2022-12-10T05:24:18;128.13;;;50.67;;
18378;SDS011;27025;51.986;5.984;2022-12-10T05:26:44;124.80;;;50.60;;
18378;SDS011;27025;51.986;5.984;2022-12-10T05:29:12;128.17;;;51.07;;
18378;SDS011;27025;51.986;5.984;2022-12-10T05:31:38;129.77;;;50.07;;
18378;SDS011;27025;51.986;5.984;2022-12-10T05:34:04;128.30;;;52.10;;
18378;SDS011;27025;51.986;5.984;2022-12-10T05:36:33;125.70;;;50.80;;
18378;SDS011;27025;51.986;5.984;2022-12-10T05:38:59;130.23;;;52.93;;
18378;SDS011;27025;51.986;5.984;2022-12-10T05:41:28;126.73;;;50.87;;
18378;SDS011;27025;51.986;5.984;2022-12-10T05:43:54;132.97;;;50.80;;
18378;SDS011;27025;51.986;5.984;2022-12-10T05:46:22;137.30;;;53.67;;
18378;SDS011;27025;51.986;5.984;2022-12-10T05:48:48;136.90;;;52.97;;
18378;SDS011;27025;51.986;5.984;2022-12-10T05:51:19;144.30;;;54.47;;
18378;SDS011;27025;51.986;5.984;2022-12-10T05:53:46;145.90;;;55.50;;
18378;SDS011;27025;51.986;5.984;2022-12-10T05:56:14;136.70;;;53.07;;
18378;SDS011;27025;51.986;5.984;2022-12-10T05:58:41;148.47;;;54.47;;
18378;SDS011;27025;51.986;5.984;2022-12-10T06:01:08;149.50;;;54.07;;
18378;SDS011;27025;51.986;5.984;2022-12-10T06:03:34;145.27;;;54.17;;
18378;SDS011;27025;51.986;5.984;2022-12-10T06:06:00;150.30;;;56.10;;
18378;SDS011;27025;51.986;5.984;2022-12-10T06:08:26;157.23;;;57.17;;
18378;SDS011;27025;51.986;5.984;2022-12-10T06:10:52;150.60;;;55.70;;
18378;SDS011;27025;51.986;5.984;2022-12-10T06:13:19;154.30;;;55.33;;
18378;SDS011;27025;51.986;5.984;2022-12-10T06:15:45;158.67;;;54.77;;
18378;SDS011;27025;51.986;5.984;2022-12-10T06:18:11;146.73;;;53.03;;
18378;SDS011;27025;51.986;5.984;2022-12-10T06:20:37;141.33;;;53.50;;
18378;SDS011;27025;51.986;5.984;2022-12-10T06:23:04;142.13;;;53.33;;
18378;SDS011;27025;51.986;5.984;2022-12-10T06:25:30;135.17;;;52.23;;
18378;SDS011;27025;51.986;5.984;2022-12-10T06:27:56;199.90;;;56.87;;
18378;SDS011;27025;51.986;5.984;2022-12-10T06:30:22;145.80;;;55.43;;
18378;SDS011;27025;51.986;5.984;2022-12-10T06:32:48;157.53;;;53.87;;
18378;SDS011;27025;51.986;5.984;2022-12-10T06:35:14;149.53;;;54.83;;
18378;SDS011;27025;51.986;5.984;2022-12-10T06:37:40;150.67;;;54.20;;
18378;SDS011;27025;51.986;5.984;2022-12-10T06:40:06;155.23;;;54.47;;
18378;SDS011;27025;51.986;5.984;2022-12-10T06:42:32;141.37;;;52.63;;
18378;SDS011;27025;51.986;5.984;2022-12-10T06:44:59;134.53;;;51.27;;
18378;SDS011;27025;51.986;5.984;2022-12-10T06:47:25;132.03;;;52.43;;
18378;SDS011;27025;51.986;5.984;2022-12-10T06:49:51;146.17;;;52.77;;
18378;SDS011;27025;51.986;5.984;2022-12-10T06:52:17;146.17;;;53.10;;
18378;SDS011;27025;51.986;5.984;2022-12-10T06:54:43;138.63;;;51.20;;
18378;SDS011;27025;51.986;5.984;2022-12-10T06:57:09;139.27;;;51.67;;
18378;SDS011;27025;51.986;5.984;2022-12-10T06:59:35;193.53;;;51.03;;
18378;SDS011;27025;51.986;5.984;2022-12-10T07:02:01;146.33;;;48.33;;
18378;SDS011;27025;51.986;5.984;2022-12-10T07:04:27;131.47;;;48.07;;
18378;SDS011;27025;51.986;5.984;2022-12-10T07:06:53;148.03;;;47.77;;
18378;SDS011;27025;51.986;5.984;2022-12-10T07:09:19;130.40;;;48.73;;
18378;SDS011;27025;51.986;5.984;2022-12-10T07:11:45;127.70;;;49.00;;
18378;SDS011;27025;51.986;5.984;2022-12-10T07:14:12;157.43;;;49.37;;
18378;SDS011;27025;51.986;5.984;2022-12-10T07:16:39;130.27;;;49.90;;
18378;SDS011;27025;51.986;5.984;2022-12-10T07:19:05;139.90;;;51.20;;
18378;SDS011;27025;51.986;5.984;2022-12-10T07:21:32;147.27;;;51.23;;
18378;SDS011;27025;51.986;5.984;2022-12-10T07:24:00;152.27;;;48.77;;
18378;SDS011;27025;51.986;5.984;2022-12-10T07:26:31;203.57;;;49.50;;
18378;SDS011;27025;51.986;5.984;2022-12-10T07:28:58;301.20;;;46.57;;
18378;SDS011;27025;51.986;5.984;2022-12-10T07:31:24;399.93;;;49.57;;
18378;SDS011;27025;51.986;5.984;2022-12-10T07:33:51;309.37;;;46.67;;
18378;SDS011;27025;51.986;5.984;2022-12-10T07:36:18;421.13;;;75.78;;
18378;SDS011;27025;51.986;5.984;2022-12-10T07:38:44;381.40;;;54.47;;
18378;SDS011;27025;51.986;5.984;2022-12-10T07:41:11;432.97;;;55.87;;
18378;SDS011;27025;51.986;5.984;2022-12-10T07:43:38;389.00;;;53.37;;
18378;SDS011;27025;51.986;5.984;2022-12-10T07:48:37;282.43;;;52.57;;
18378;SDS011;27025;51.986;5.984;2022-12-10T07:51:03;254.43;;;51.90;;
18378;SDS011;27025;51.986;5.984;2022-12-10T07:53:30;329.80;;;53.70;;
18378;SDS011;27025;51.986;5.984;2022-12-10T07:55:56;243.63;;;53.13;;
18378;SDS011;27025;51.986;5.984;2022-12-10T07:58:22;196.97;;;53.83;;
18378;SDS011;27025;51.986;5.984;2022-12-10T08:00:48;183.40;;;53.37;;
18378;SDS011;27025;51.986;5.984;2022-12-10T08:03:14;218.90;;;53.53;;
18378;SDS011;27025;51.986;5.984;2022-12-10T08:05:40;220.83;;;51.00;;
18378;SDS011;27025;51.986;5.984;2022-12-10T08:08:06;285.73;;;52.13;;
18378;SDS011;27025;51.986;5.984;2022-12-10T08:10:35;246.10;;;55.27;;
18378;SDS011;27025;51.986;5.984;2022-12-10T08:13:02;200.33;;;52.20;;
18378;SDS011;27025;51.986;5.984;2022-12-10T08:15:28;186.73;;;53.63;;
18378;SDS011;27025;51.986;5.984;2022-12-10T08:17:54;177.37;;;51.80;;
18378;SDS011;27025;51.986;5.984;2022-12-10T08:20:21;188.67;;;54.93;;
18378;SDS011;27025;51.986;5.984;2022-12-10T08:22:47;187.37;;;52.37;;
18378;SDS011;27025;51.986;5.984;2022-12-10T08:25:13;187.90;;;53.00;;
18378;SDS011;27025;51.986;5.984;2022-12-10T08:27:39;159.43;;;49.10;;
18378;SDS011;27025;51.986;5.984;2022-12-10T08:30:05;170.80;;;48.53;;
18378;SDS011;27025;51.986;5.984;2022-12-10T08:32:31;180.50;;;51.00;;
18378;SDS011;27025;51.986;5.984;2022-12-10T08:34:57;196.63;;;51.67;;
18378;SDS011;27025;51.986;5.984;2022-12-10T08:37:23;176.30;;;50.63;;
18378;SDS011;27025;51.986;5.984;2022-12-10T08:39:49;178.83;;;51.10;;
18378;SDS011;27025;51.986;5.984;2022-12-10T08:42:15;180.23;;;50.40;;
18378;SDS011;27025;51.986;5.984;2022-12-10T08:44:41;187.80;;;51.77;;
18378;SDS011;27025;51.986;5.984;2022-12-10T08:47:07;193.90;;;51.13;;
18378;SDS011;27025;51.986;5.984;2022-12-10T08:49:33;169.70;;;49.53;;
18378;SDS011;27025;51.986;5.984;2022-12-10T08:51:59;165.80;;;47.43;;
18378;SDS011;27025;51.986;5.984;2022-12-10T08:54:25;165.40;;;48.30;;
18378;SDS011;27025;51.986;5.984;2022-12-10T08:56:51;155.17;;;47.87;;
18378;SDS011;27025;51.986;5.984;2022-12-10T08:59:17;165.10;;;50.33;;
18378;SDS011;27025;51.986;5.984;2022-12-10T09:01:43;163.87;;;48.60;;
18378;SDS011;27025;51.986;5.984;2022-12-10T09:04:09;160.03;;;48.93;;
18378;SDS011;27025;51.986;5.984;2022-12-10T09:06:37;163.67;;;47.87;;
18378;SDS011;27025;51.986;5.984;2022-12-10T09:09:03;159.80;;;47.90;;
18378;SDS011;27025;51.986;5.984;2022-12-10T09:11:30;157.20;;;49.47;;
18378;SDS011;27025;51.986;5.984;2022-12-10T09:13:57;145.13;;;46.73;;
18378;SDS011;27025;51.986;5.984;2022-12-10T09:16:33;150.40;;;48.83;;
18378;SDS011;27025;51.986;5.984;2022-12-10T09:19:00;147.23;;;48.03;;
18378;SDS011;27025;51.986;5.984;2022-12-10T09:21:26;153.77;;;46.70;;
18378;SDS011;27025;51.986;5.984;2022-12-10T09:23:53;147.27;;;46.37;;
18378;SDS011;27025;51.986;5.984;2022-12-10T09:26:20;143.43;;;46.73;;
18378;SDS011;27025;51.986;5.984;2022-12-10T09:28:46;183.65;;;67.05;;
18378;SDS011;27025;51.986;5.984;2022-12-10T09:31:12;158.27;;;51.80;;
18378;SDS011;27025;51.986;5.984;2022-12-10T09:33:39;149.40;;;48.77;;
18378;SDS011;27025;51.986;5.984;2022-12-10T09:36:07;144.13;;;48.93;;
18378;SDS011;27025;51.986;5.984;2022-12-10T09:38:33;152.30;;;44.23;;
18378;SDS011;27025;51.986;5.984;2022-12-10T09:41:01;164.87;;;44.70;;
18378;SDS011;27025;51.986;5.984;2022-12-10T09:44:10;164.23;;;45.53;;
18378;SDS011;27025;51.986;5.984;2022-12-10T09:49:47;172.33;;;42.87;;
18378;SDS011;27025;51.986;5.984;2022-12-10T09:51:41;162.80;;;42.50;;
18378;SDS011;27025;51.986;5.984;2022-12-10T09:54:29;233.87;;;44.47;;
18378;SDS011;27025;51.986;5.984;2022-12-10T09:56:54;165.50;;;43.10;;
18378;SDS011;27025;51.986;5.984;2022-12-10T09:59:30;208.97;;;41.27;;
18378;SDS011;27025;51.986;5.984;2022-12-10T10:02:41;202.30;;;45.83;;
18378;SDS011;27025;51.986;5.984;2022-12-10T10:04:48;208.40;;;43.90;;
18378;SDS011;27025;51.986;5.984;2022-12-10T10:07:22;169.00;;;40.23;;
18378;SDS011;27025;51.986;5.984;2022-12-10T10:09:50;230.37;;;45.13;;
18378;SDS011;27025;51.986;5.984;2022-12-10T10:12:16;222.90;;;46.33;;
18378;SDS011;27025;51.986;5.984;2022-12-10T10:14:43;194.63;;;48.23;;
18378;SDS011;27025;51.986;5.984;2022-12-10T10:17:23;193.03;;;46.27;;
18378;SDS011;27025;51.986;5.984;2022-12-10T10:19:53;181.50;;;47.13;;
18378;SDS011;27025;51.986;5.984;2022-12-10T10:22:19;206.80;;;47.40;;
18378;SDS011;27025;51.986;5.984;2022-12-10T10:24:45;199.40;;;47.97;;
18378;SDS011;27025;51.986;5.984;2022-12-10T10:29:41;244.33;;;49.90;;
18378;SDS011;27025;51.986;5.984;2022-12-10T10:32:27;193.93;;;47.93;;
18378;SDS011;27025;51.986;5.984;2022-12-10T10:34:57;202.10;;;50.67;;
18378;SDS011;27025;51.986;5.984;2022-12-10T10:37:25;193.53;;;49.20;;
18378;SDS011;27025;51.986;5.984;2022-12-10T10:39:55;196.43;;;47.47;;
18378;SDS011;27025;51.986;5.984;2022-12-10T10:42:43;195.50;;;49.03;;
18378;SDS011;27025;51.986;5.984;2022-12-10T10:48:03;199.63;;;49.10;;
18378;SDS011;27025;51.986;5.984;2022-12-10T10:50:29;200.77;;;50.03;;
18378;SDS011;27025;51.986;5.984;2022-12-10T10:52:55;196.00;;;50.00;;
18378;SDS011;27025;51.986;5.984;2022-12-10T10:55:30;205.40;;;48.63;;
18378;SDS011;27025;51.986;5.984;2022-12-10T10:58:01;201.13;;;50.93;;
18378;SDS011;27025;51.986;5.984;2022-12-10T11:00:27;199.60;;;49.30;;
18378;SDS011;27025;51.986;5.984;2022-12-10T11:02:53;190.53;;;50.97;;
18378;SDS011;27025;51.986;5.984;2022-12-10T11:07:45;199.57;;;50.17;;
18378;SDS011;27025;51.986;5.984;2022-12-10T11:10:21;198.87;;;49.43;;
18378;SDS011;27025;51.986;5.984;2022-12-10T11:15:43;197.83;;;50.57;;
18378;SDS011;27025;51.986;5.984;2022-12-10T11:23:23;187.07;;;48.00;;
18378;SDS011;27025;51.986;5.984;2022-12-10T11:30:47;201.00;;;53.07;;
18378;SDS011;27025;51.986;5.984;2022-12-10T11:33:34;241.70;;;49.87;;
18378;SDS011;27025;51.986;5.984;2022-12-10T11:41:12;179.60;;;48.27;;
18378;SDS011;27025;51.986;5.984;2022-12-10T11:44:00;182.20;;;46.93;;
18378;SDS011;27025;51.986;5.984;2022-12-10T11:49:13;183.60;;;47.87;;
18378;SDS011;27025;51.986;5.984;2022-12-10T11:57:09;185.23;;;47.77;;
18378;SDS011;27025;51.986;5.984;2022-12-10T12:02:38;188.80;;;47.37;;
18378;SDS011;27025;51.986;5.984;2022-12-10T12:20:53;244.97;;;51.03;;
18378;SDS011;27025;51.986;5.984;2022-12-10T12:23:28;172.93;;;46.93;;
18378;SDS011;27025;51.986;5.984;2022-12-10T12:25:56;196.93;;;48.33;;
18378;SDS011;27025;51.986;5.984;2022-12-10T12:28:33;191.97;;;45.17;;
18378;SDS011;27025;51.986;5.984;2022-12-10T12:31:14;151.77;;;43.80;;
18378;SDS011;27025;51.986;5.984;2022-12-10T12:33:45;220.47;;;46.00;;
18378;SDS011;27025;51.986;5.984;2022-12-10T12:36:14;200.63;;;43.43;;
18378;SDS011;27025;51.986;5.984;2022-12-10T12:38:46;130.77;;;39.27;;
18378;SDS011;27025;51.986;5.984;2022-12-10T12:41:17;138.57;;;40.40;;
18378;SDS011;27025;51.986;5.984;2022-12-10T12:46:19;193.67;;;42.50;;
18378;SDS011;27025;51.986;5.984;2022-12-10T12:54:03;139.63;;;41.83;;
18378;SDS011;27025;51.986;5.984;2022-12-10T13:01:56;108.57;;;34.97;;
18378;SDS011;27025;51.986;5.984;2022-12-10T13:04:23;104.80;;;36.27;;
18378;SDS011;27025;51.986;5.984;2022-12-10T13:09:39;161.70;;;40.43;;
18378;SDS011;27025;51.986;5.984;2022-12-10T13:17:32;137.07;;;40.30;;
18378;SDS011;27025;51.986;5.984;2022-12-10T13:22:53;231.83;;;38.93;;
18378;SDS011;27025;51.986;5.984;2022-12-10T13:25:21;245.43;;;42.03;;
18378;SDS011;27025;51.986;5.984;2022-12-10T13:28:16;205.37;;;42.33;;
18378;SDS011;27025;51.986;5.984;2022-12-10T13:30:42;175.90;;;41.67;;
18378;SDS011;27025;51.986;5.984;2022-12-10T13:33:18;233.07;;;42.00;;
18378;SDS011;27025;51.986;5.984;2022-12-10T13:35:50;220.33;;;41.30;;
18378;SDS011;27025;51.986;5.984;2022-12-10T13:38:18;215.40;;;45.07;;
18378;SDS011;27025;51.986;5.984;2022-12-10T13:40:54;187.77;;;42.07;;
18378;SDS011;27025;51.986;5.984;2022-12-10T13:43:40;161.83;;;37.87;;
18378;SDS011;27025;51.986;5.984;2022-12-10T13:48:54;259.57;;;44.20;;
18378;SDS011;27025;51.986;5.984;2022-12-10T13:51:23;244.30;;;43.50;;
18378;SDS011;27025;51.986;5.984;2022-12-10T13:53:55;272.50;;;44.53;;
18378;SDS011;27025;51.986;5.984;2022-12-10T13:56:28;214.60;;;39.57;;
18378;SDS011;27025;51.986;5.984;2022-12-10T13:58:57;213.60;;;44.83;;
18378;SDS011;27025;51.986;5.984;2022-12-10T14:06:52;298.47;;;46.53;;
18378;SDS011;27025;51.986;5.984;2022-12-10T14:12:07;323.87;;;46.07;;
18378;SDS011;27025;51.986;5.984;2022-12-10T14:14:32;206.60;;;43.07;;
18378;SDS011;27025;51.986;5.984;2022-12-10T14:16:59;190.37;;;43.97;;
18378;SDS011;27025;51.986;5.984;2022-12-10T14:19:26;201.43;;;46.77;;
18378;SDS011;27025;51.986;5.984;2022-12-10T14:21:53;413.60;;;47.27;;
18378;SDS011;27025;51.986;5.984;2022-12-10T14:24:33;388.60;;;45.83;;
18378;SDS011;27025;51.986;5.984;2022-12-10T14:27:14;347.37;;;44.77;;
18378;SDS011;27025;51.986;5.984;2022-12-10T14:29:47;233.13;;;40.73;;
18378;SDS011;27025;51.986;5.984;2022-12-10T14:32:14;200.33;;;42.27;;
18378;SDS011;27025;51.986;5.984;2022-12-10T14:34:41;266.30;;;44.00;;
18378;SDS011;27025;51.986;5.984;2022-12-10T14:37:09;333.80;;;45.77;;
18378;SDS011;27025;51.986;5.984;2022-12-10T14:39:38;226.00;;;42.77;;
18378;SDS011;27025;51.986;5.984;2022-12-10T14:42:05;403.77;;;43.83;;
18378;SDS011;27025;51.986;5.984;2022-12-10T14:44:31;567.93;;;45.67;;
18378;SDS011;27025;51.986;5.984;2022-12-10T14:47:12;229.33;;;39.17;;
18378;SDS011;27025;51.986;5.984;2022-12-10T14:49:40;292.10;;;38.57;;
18378;SDS011;27025;51.986;5.984;2022-12-10T14:52:11;266.33;;;43.40;;
18378;SDS011;27025;51.986;5.984;2022-12-10T14:54:37;328.20;;;46.30;;
18378;SDS011;27025;51.986;5.984;2022-12-10T14:57:04;351.20;;;44.77;;
18378;SDS011;27025;51.986;5.984;2022-12-10T14:59:33;258.20;;;46.03;;
18378;SDS011;27025;51.986;5.984;2022-12-10T15:02:02;327.97;;;46.60;;
18378;SDS011;27025;51.986;5.984;2022-12-10T15:04:40;322.50;;;43.47;;
18378;SDS011;27025;51.986;5.984;2022-12-10T15:07:11;257.03;;;47.80;;
18378;SDS011;27025;51.986;5.984;2022-12-10T15:09:39;256.13;;;40.83;;
18378;SDS011;27025;51.986;5.984;2022-12-10T15:12:05;219.03;;;37.63;;
18378;SDS011;27025;51.986;5.984;2022-12-10T15:14:31;139.43;;;33.37;;
18378;SDS011;27025;51.986;5.984;2022-12-10T15:16:57;421.73;;;42.57;;
18378;SDS011;27025;51.986;5.984;2022-12-10T15:21:58;369.23;;;45.70;;
18378;SDS011;27025;51.986;5.984;2022-12-10T15:24:42;238.53;;;36.20;;
18378;SDS011;27025;51.986;5.984;2022-12-10T15:27:18;333.83;;;44.40;;
18378;SDS011;27025;51.986;5.984;2022-12-10T15:29:44;454.13;;;41.17;;
18378;SDS011;27025;51.986;5.984;2022-12-10T15:32:12;351.77;;;40.37;;
18378;SDS011;27025;51.986;5.984;2022-12-10T15:34:44;265.67;;;39.57;;
18378;SDS011;27025;51.986;5.984;2022-12-10T15:37:15;285.10;;;40.60;;
18378;SDS011;27025;51.986;5.984;2022-12-10T15:39:52;295.07;;;44.30;;
18378;SDS011;27025;51.986;5.984;2022-12-10T15:42:55;166.60;;;38.63;;
18378;SDS011;27025;51.986;5.984;2022-12-10T15:47:40;169.40;;;38.73;;
18378;SDS011;27025;51.986;5.984;2022-12-10T15:50:07;227.87;;;41.73;;
18378;SDS011;27025;51.986;5.984;2022-12-10T15:52:34;204.27;;;42.67;;
18378;SDS011;27025;51.986;5.984;2022-12-10T15:55:00;211.03;;;41.53;;
18378;SDS011;27025;51.986;5.984;2022-12-10T15:57:28;290.20;;;42.27;;
18378;SDS011;27025;51.986;5.984;2022-12-10T15:59:56;267.20;;;38.37;;
18378;SDS011;27025;51.986;5.984;2022-12-10T16:04:58;209.03;;;38.53;;
18378;SDS011;27025;51.986;5.984;2022-12-10T16:07:24;214.30;;;35.50;;
18378;SDS011;27025;51.986;5.984;2022-12-10T16:09:50;149.17;;;36.53;;
18378;SDS011;27025;51.986;5.984;2022-12-10T16:12:16;197.23;;;35.60;;
18378;SDS011;27025;51.986;5.984;2022-12-10T16:14:49;146.27;;;33.97;;